Manacor, Spain

6:47 PM CET on January 31, 2015 (GMT +0100)
IIBSANTJ2 | Change Station
CLOSE
Current Station
Personal Weather Station
Location: Sant Joan, IB
Elevation: 446 ft
Nearby Weather Stations
Active Advisory: Wind

Elev 446 ft 39.60 °N, 3.04 °E | Updated 36 seconds ago

Scattered Clouds
Scattered Clouds
50.9 °F
Feels Like 50.9 °F
N
4.3
Wind Variable Wind from NW
Gusts 8.1 mph

Today
High -- | Low -- °F
--% Chance of Precip.
Yesterday
High -- | Low -- °F
Precip. -- in
7:56 AM 6:05 PM
Waxing Gibbous, 90% visible
Pressure 29.39 in
Visibility 6.2 miles
Clouds Scattered Clouds 2200 ft
Dew Point 37 °F
Humidity 58%
Rainfall 0.06 in
Snow Depth Not available.
UV 0 out of 12
Pollen Not available.
Air Quality Not available.
Flu Activity Not available.
METAR LEPA 311730Z 31018G28KT 290V350 9999 SCT022 12/03 Q0995 NOSIG

More Conditions Fewer Conditions

Pressure 29.39 in
Visibility 6.2 miles
Clouds Scattered Clouds 2200 ft
Dew Point 37 °F
Humidity 58%
Rainfall 0.06 in
Snow Depth Not available.
UV 0 out of 12
Pollen Not available.
Air Quality Not available.
Flu Activity Not available.
METAR LEPA 311730Z 31018G28KT 290V350 9999 SCT022 12/03 Q0995 NOSIG

More Conditions Fewer Conditions

10-Day Weather Forecast

Almanac

Astronomy

Jan. 31, 2015 Rise Set
Actual Time
Civil Twilight
Nautical Twilight
Astronomical Twilight
Moon
Length of Visible Light
Length of Day
Tomorrow will be .
, % of the Moon is Illuminated

Today's Extremes

Country Highs Country Lows

Community

WunderPhotos

Upload Photos

1,792,136 photos uploaded!

WunderBlogs® & News

Nearby

Air Quality

  Air Quality AQ Index Pollutant
Not available.

Snow Depth

Station Depth Elevation

Earthquake Activity

City Distance Mag. Time & Date
Minimum magnitude displayed is 2.5.

Coastal Water Temperatures

Place Temperature

Nearby Weather Stations